CSH6 weather

Montreal / Les Cèdres Heliport
Montréal, Quebec, Canada

Public forecast

Using degrees Celsius for public forecast. Weather courtesy of forecast.io.

Closest aviation weather report (METAR) to Montreal / Les Cèdres Heliport

Closest report is Montreal / Pierre Elliott Trudeau International Airport, 16.4 nm (30.3 km) ENE. Retrieved 2020/05/26 19:00 UTC (28 seconds ago):

CYUL 261900Z 19012KT 15SM FEW060 SCT240 32/17 A3004 RMK CF2CI2 SLP175 DENSITY ALT 2000FT

Closest aviation forecast (TAF) to Montreal / Les Cèdres Heliport

Closest forecast is Montreal / Pierre Elliott Trudeau International Airport, 16.4 nm (30.3 km) ENE. Retrieved 2020/05/26 18:42 UTC (18 minutes ago):

TAF CYUL 261738Z 2618/2718 22012KT P6SM SCT050 TEMPO 2620/2624 P6SM VCTS BKN050CB FM270200 14005KT P6SM FEW080 FEW240 FM271600 22012KT P6SM SCT060 RMK NXT FCST BY 262100Z